Time;durP1;ratioP1;P1;durP2;ratioP2;P2;SDS_P1;SDS_P2;PMS_P1;PMS_P2;Temp;Humidity;BMP_temperature;BMP_pressure;BME280_temperature;BME280_humidity;BME280_pressure;Samples;Min_cycle;Max_cycle;Signal;HPM_P1;HPM_P2
2022/05/05 00:01:37;;;;;;;9.67;5.10;;;;;;;;;;4403141;32;20306;-56
2022/05/05 00:04:03;;;;;;;7.40;4.37;;;;;;;;;;4403794;32;20225;-57
2022/05/05 00:06:30;;;;;;;8.10;3.87;;;;;;;;;;4396875;32;20281;-57
2022/05/05 00:08:56;;;;;;;8.43;5.53;;;;;;;;;;4378161;32;20255;-57
2022/05/05 00:14:24;;;;;;;13.10;7.30;;;;;;;;;;4391230;32;20252;-57
2022/05/05 00:16:59;;;;;;;9.80;6.73;;;;;;;;;;4391484;32;20198;-57
2022/05/05 00:19:26;;;;;;;12.03;6.47;;;;;;;;;;4391638;32;20244;-58
2022/05/05 00:21:52;;;;;;;8.57;6.13;;;;;;;;;;4391338;32;20261;-57
2022/05/05 00:24:18;;;;;;;6.93;4.70;;;;;;;;;;4377292;32;20358;-57
2022/05/05 00:26:43;;;;;;;13.50;8.93;;;;;;;;;;4391096;32;20257;-57
2022/05/05 00:29:09;;;;;;;39.10;26.57;;;;;;;;;;4390952;32;20259;-58
2022/05/05 00:31:35;;;;;;;49.00;25.67;;;;;;;;;;4378040;32;20289;-57
2022/05/05 00:34:00;;;;;;;33.90;20.47;;;;;;;;;;4406564;32;20217;-57
2022/05/05 00:36:26;;;;;;;28.10;18.87;;;;;;;;;;4406435;32;20296;-58
2022/05/05 00:38:51;;;;;;;16.20;12.17;;;;;;;;;;4406070;32;20237;-57
2022/05/05 00:41:17;;;;;;;19.50;11.27;;;;;;;;;;4406366;32;20294;-56
2022/05/05 00:43:42;;;;;;;13.97;10.17;;;;;;;;;;4406503;32;20251;-56
2022/05/05 00:46:08;;;;;;;15.80;9.50;;;;;;;;;;4406164;32;20299;-58
2022/05/05 00:48:33;;;;;;;8.63;6.33;;;;;;;;;;4406219;32;20759;-57
2022/05/05 00:50:59;;;;;;;13.53;6.87;;;;;;;;;;4406277;32;20781;-57
2022/05/05 00:53:25;;;;;;;6.87;5.17;;;;;;;;;;4406016;32;20318;-58
2022/05/05 00:55:55;;;;;;;7.10;4.87;;;;;;;;;;4406233;32;20281;-59
2022/05/05 00:58:23;;;;;;;8.80;4.20;;;;;;;;;;4405463;32;20219;-58
2022/05/05 01:00:49;;;;;;;9.33;4.27;;;;;;;;;;4392124;32;20221;-57
2022/05/05 01:03:15;;;;;;;15.63;4.47;;;;;;;;;;4392089;32;20629;-57
2022/05/05 01:05:41;;;;;;;8.27;4.37;;;;;;;;;;4406064;32;20202;-56
2022/05/05 01:08:07;;;;;;;7.57;4.73;;;;;;;;;;4405669;32;20307;-56
2022/05/05 01:10:33;;;;;;;4.27;3.83;;;;;;;;;;4405770;32;20213;-58
2022/05/05 01:13:01;;;;;;;4.30;3.60;;;;;;;;;;4404199;32;20283;-57
2022/05/05 01:15:28;;;;;;;8.10;4.00;;;;;;;;;;4390000;32;20277;-57
2022/05/05 01:17:54;;;;;;;8.17;4.30;;;;;;;;;;4376417;32;20296;-58
2022/05/05 01:20:23;;;;;;;6.90;4.53;;;;;;;;;;4389277;32;20340;-56
2022/05/05 01:22:50;;;;;;;6.80;4.10;;;;;;;;;;4390385;32;20234;-56
2022/05/05 01:28:11;;;;;;;5.70;4.17;;;;;;;;;;4393288;32;20603;-56
2022/05/05 01:30:45;;;;;;;8.20;3.67;;;;;;;;;;4405857;32;20292;-58
2022/05/05 01:33:10;;;;;;;5.53;3.70;;;;;;;;;;4391386;32;20260;-57
2022/05/05 01:35:36;;;;;;;7.27;4.13;;;;;;;;;;4405545;32;20780;-58
2022/05/05 01:38:02;;;;;;;4.13;3.00;;;;;;;;;;4404940;32;20245;-57
2022/05/05 01:40:27;;;;;;;5.50;3.80;;;;;;;;;;4405440;32;20398;-58
2022/05/05 01:42:52;;;;;;;5.63;3.67;;;;;;;;;;4405291;32;20315;-57
2022/05/05 01:45:18;;;;;;;8.20;3.60;;;;;;;;;;4405559;32;20567;-57
2022/05/05 01:47:43;;;;;;;9.47;3.83;;;;;;;;;;4405297;32;20672;-57
2022/05/05 01:50:09;;;;;;;4.33;3.67;;;;;;;;;;4405098;32;20342;-57
2022/05/05 01:52:34;;;;;;;4.13;3.53;;;;;;;;;;4404319;32;20237;-57
2022/05/05 01:55:00;;;;;;;5.53;3.57;;;;;;;;;;4403007;32;20315;-57
2022/05/05 01:57:25;;;;;;;11.77;4.47;;;;;;;;;;4405028;32;20255;-56
2022/05/05 01:59:50;;;;;;;5.17;3.80;;;;;;;;;;4390410;32;20288;-57
2022/05/05 02:02:16;;;;;;;7.50;4.53;;;;;;;;;;4389431;32;20362;-56
2022/05/05 02:04:41;;;;;;;8.27;4.67;;;;;;;;;;4405247;32;20673;-57
2022/05/05 02:07:07;;;;;;;5.13;4.33;;;;;;;;;;4404479;32;20210;-57
2022/05/05 02:09:32;;;;;;;11.20;4.53;;;;;;;;;;4404664;32;20273;-57
2022/05/05 02:11:58;;;;;;;11.47;4.33;;;;;;;;;;4404954;32;20209;-57
2022/05/05 02:14:24;;;;;;;5.47;4.20;;;;;;;;;;4405073;32;20818;-57
2022/05/05 02:16:52;;;;;;;8.37;4.23;;;;;;;;;;4405101;32;20284;-58
2022/05/05 02:19:18;;;;;;;7.60;4.70;;;;;;;;;;4391001;32;20332;-58
2022/05/05 02:21:43;;;;;;;8.60;4.07;;;;;;;;;;4404650;32;20581;-57
2022/05/05 02:24:09;;;;;;;8.83;4.73;;;;;;;;;;4392002;32;20267;-57
2022/05/05 02:26:35;;;;;;;8.60;5.73;;;;;;;;;;4390471;32;20681;-57
2022/05/05 02:29:02;;;;;;;13.30;6.33;;;;;;;;;;4404786;32;20561;-58
2022/05/05 02:31:27;;;;;;;6.93;5.60;;;;;;;;;;4404623;32;20270;-58
2022/05/05 02:33:53;;;;;;;8.43;5.60;;;;;;;;;;4404715;32;20234;-58
2022/05/05 02:39:03;;;;;;;9.13;4.53;;;;;;;;;;4404294;32;20378;-58
2022/05/05 02:41:28;;;;;;;5.17;4.30;;;;;;;;;;4390647;32;20308;-58
2022/05/05 02:43:53;;;;;;;8.43;4.03;;;;;;;;;;4404603;32;20692;-57
2022/05/05 02:46:19;;;;;;;7.43;3.73;;;;;;;;;;4404055;32;20666;-57
2022/05/05 02:48:44;;;;;;;4.03;3.60;;;;;;;;;;4404615;32;20697;-57
2022/05/05 02:51:13;;;;;;;18.13;5.00;;;;;;;;;;4395411;32;20382;-58
2022/05/05 02:56:23;;;;;;;4.67;3.73;;;;;;;;;;4404028;32;20435;-56
2022/05/05 02:58:48;;;;;;;4.70;4.13;;;;;;;;;;4404054;32;20222;-57
2022/05/05 03:01:14;;;;;;;12.97;5.23;;;;;;;;;;4403894;32;20272;-56
2022/05/05 03:03:39;;;;;;;7.83;5.20;;;;;;;;;;4403940;32;20617;-56
2022/05/05 03:06:05;;;;;;;9.90;5.70;;;;;;;;;;4396872;32;20296;-57
2022/05/05 03:08:30;;;;;;;5.97;4.87;;;;;;;;;;4388819;32;20226;-57
2022/05/05 03:10:56;;;;;;;5.93;4.87;;;;;;;;;;4401004;32;20295;-57
2022/05/05 03:13:21;;;;;;;5.93;4.87;;;;;;;;;;4403741;32;20249;-57
2022/05/05 03:15:47;;;;;;;11.63;4.00;;;;;;;;;;4403710;32;20725;-57
2022/05/05 03:18:12;;;;;;;11.03;4.43;;;;;;;;;;4403678;32;20686;-58
2022/05/05 03:20:37;;;;;;;7.53;3.60;;;;;;;;;;4403588;32;20284;-57
2022/05/05 03:23:03;;;;;;;9.13;4.80;;;;;;;;;;4403735;32;20646;-57
2022/05/05 03:25:28;;;;;;;5.50;3.63;;;;;;;;;;4403643;32;20567;-58
2022/05/05 03:27:54;;;;;;;5.20;2.97;;;;;;;;;;4389744;32;20679;-57
2022/05/05 03:30:19;;;;;;;5.63;3.33;;;;;;;;;;4403582;32;20310;-57
2022/05/05 03:32:45;;;;;;;7.47;4.50;;;;;;;;;;4403473;32;20574;-58
2022/05/05 03:35:11;;;;;;;11.27;3.70;;;;;;;;;;4403803;32;20344;-58
2022/05/05 03:37:36;;;;;;;5.47;4.40;;;;;;;;;;4389427;32;20713;-56
2022/05/05 03:40:02;;;;;;;5.17;4.60;;;;;;;;;;4404061;32;20250;-58
2022/05/05 03:42:28;;;;;;;5.93;4.20;;;;;;;;;;4403847;32;20290;-57
2022/05/05 03:44:54;;;;;;;16.87;5.30;;;;;;;;;;4403800;32;20273;-59
2022/05/05 03:47:19;;;;;;;6.23;3.97;;;;;;;;;;4400617;32;20243;-57
2022/05/05 03:49:45;;;;;;;11.40;4.97;;;;;;;;;;4404479;32;20330;-58
2022/05/05 03:52:10;;;;;;;7.53;4.30;;;;;;;;;;4405654;32;20310;-57
2022/05/05 03:54:35;;;;;;;4.73;3.53;;;;;;;;;;4386762;32;20599;-57
2022/05/05 03:57:01;;;;;;;6.63;4.43;;;;;;;;;;4388249;32;20264;-57
2022/05/05 03:59:27;;;;;;;6.03;4.20;;;;;;;;;;4400184;32;20325;-58
2022/05/05 04:01:52;;;;;;;6.87;5.43;;;;;;;;;;4402816;32;20238;-58
2022/05/05 04:04:18;;;;;;;11.73;5.33;;;;;;;;;;4402910;32;20413;-57
2022/05/05 04:06:43;;;;;;;13.93;5.93;;;;;;;;;;4402782;32;20218;-57
2022/05/05 04:09:10;;;;;;;9.70;5.07;;;;;;;;;;4403063;32;20229;-57
2022/05/05 04:11:36;;;;;;;13.63;7.13;;;;;;;;;;4403122;32;20689;-57
2022/05/05 04:14:03;;;;;;;9.63;6.77;;;;;;;;;;4403333;32;20307;-56
2022/05/05 04:16:31;;;;;;;12.13;6.83;;;;;;;;;;4403048;32;20233;-56
2022/05/05 04:18:58;;;;;;;10.50;6.93;;;;;;;;;;4403725;32;20441;-57
2022/05/05 04:21:23;;;;;;;13.60;7.53;;;;;;;;;;4388960;32;20256;-57
2022/05/05 04:23:49;;;;;;;10.43;6.67;;;;;;;;;;4403027;32;20222;-56
2022/05/05 04:26:15;;;;;;;14.47;8.50;;;;;;;;;;4403049;32;20652;-57
2022/05/05 04:28:43;;;;;;;17.40;9.40;;;;;;;;;;4403304;32;20243;-57
2022/05/05 04:31:13;;;;;;;28.93;10.77;;;;;;;;;;4403332;32;20676;-57
2022/05/05 04:33:38;;;;;;;13.37;9.80;;;;;;;;;;4403284;32;20269;-57
2022/05/05 04:36:04;;;;;;;13.80;8.33;;;;;;;;;;4401831;32;20334;-57
2022/05/05 04:38:30;;;;;;;13.03;7.30;;;;;;;;;;4401271;32;20325;-56
2022/05/05 04:40:56;;;;;;;11.73;8.77;;;;;;;;;;4402923;32;20700;-57
2022/05/05 04:43:21;;;;;;;17.63;9.37;;;;;;;;;;4380381;32;20402;-56
2022/05/05 04:45:47;;;;;;;23.23;10.17;;;;;;;;;;4402373;32;20323;-57
2022/05/05 04:48:12;;;;;;;17.53;10.17;;;;;;;;;;4402427;32;20291;-58
2022/05/05 04:50:38;;;;;;;20.93;11.40;;;;;;;;;;4403123;32;20273;-57
2022/05/05 04:53:03;;;;;;;17.00;11.47;;;;;;;;;;4404892;32;20247;-56
2022/05/05 04:55:29;;;;;;;23.73;11.17;;;;;;;;;;4405473;32;20296;-56
2022/05/05 04:57:54;;;;;;;24.10;10.97;;;;;;;;;;4402313;32;20709;-57
2022/05/05 05:00:20;;;;;;;20.50;11.17;;;;;;;;;;4392056;32;20375;-56
2022/05/05 05:02:46;;;;;;;23.87;12.87;;;;;;;;;;4404917;32;20301;-58
2022/05/05 05:05:11;;;;;;;30.03;11.87;;;;;;;;;;4390848;32;20292;-57
2022/05/05 05:07:37;;;;;;;15.30;9.57;;;;;;;;;;4404891;32;20241;-58
2022/05/05 05:10:03;;;;;;;15.40;8.77;;;;;;;;;;4404836;32;20344;-58
2022/05/05 05:12:28;;;;;;;11.13;6.80;;;;;;;;;;4405050;32;20307;-57
2022/05/05 05:14:54;;;;;;;13.80;7.53;;;;;;;;;;4406113;32;20672;-57
2022/05/05 05:17:19;;;;;;;9.50;6.53;;;;;;;;;;4404723;32;20217;-58
2022/05/05 05:19:44;;;;;;;10.30;4.90;;;;;;;;;;4405064;32;20754;-57
2022/05/05 05:22:10;;;;;;;16.57;7.40;;;;;;;;;;4390542;32;20344;-56
2022/05/05 05:24:35;;;;;;;15.10;10.27;;;;;;;;;;4405107;32;20292;-56
2022/05/05 05:27:01;;;;;;;20.53;10.07;;;;;;;;;;4404615;32;20618;-57
2022/05/05 05:29:26;;;;;;;15.43;8.33;;;;;;;;;;4404674;32;20610;-57
2022/05/05 05:31:51;;;;;;;15.63;9.27;;;;;;;;;;4404756;32;20259;-57
2022/05/05 05:34:17;;;;;;;20.23;7.27;;;;;;;;;;4390788;32;20810;-57
2022/05/05 05:36:42;;;;;;;11.40;5.47;;;;;;;;;;4404603;32;20220;-58
2022/05/05 05:39:08;;;;;;;15.80;7.60;;;;;;;;;;4397197;32;20651;-58
2022/05/05 05:41:33;;;;;;;9.43;5.90;;;;;;;;;;4419771;32;20287;-57
2022/05/05 05:44:00;;;;;;;11.93;5.90;;;;;;;;;;4419827;32;20236;-56
2022/05/05 05:46:25;;;;;;;6.87;4.37;;;;;;;;;;4419690;32;20237;-56
2022/05/05 05:48:52;;;;;;;6.37;4.53;;;;;;;;;;4420324;32;20302;-56
2022/05/05 05:51:18;;;;;;;13.67;6.00;;;;;;;;;;4413126;32;20214;-56
2022/05/05 05:53:43;;;;;;;9.83;5.23;;;;;;;;;;4404843;32;20648;-57
2022/05/05 05:56:09;;;;;;;5.47;4.37;;;;;;;;;;4390588;32;20308;-57
2022/05/05 05:58:38;;;;;;;10.53;5.70;;;;;;;;;;4398056;32;20269;-57
2022/05/05 06:01:06;;;;;;;10.03;4.47;;;;;;;;;;4378720;32;20765;-57
2022/05/05 06:06:16;;;;;;;7.23;5.23;;;;;;;;;;4395603;32;20236;-57
2022/05/05 06:08:41;;;;;;;13.00;5.23;;;;;;;;;;4389076;32;20226;-58
2022/05/05 06:11:07;;;;;;;9.57;5.10;;;;;;;;;;4388309;32;20359;-57
2022/05/05 06:13:32;;;;;;;8.30;5.23;;;;;;;;;;4403949;32;20282;-57
2022/05/05 06:15:58;;;;;;;8.07;5.20;;;;;;;;;;4404242;32;20319;-56
2022/05/05 06:18:23;;;;;;;6.00;5.17;;;;;;;;;;4403602;32;20279;-58
2022/05/05 06:20:48;;;;;;;7.50;4.40;;;;;;;;;;4403031;32;20336;-57
2022/05/05 06:23:14;;;;;;;8.90;4.80;;;;;;;;;;4404041;32;20259;-57
2022/05/05 06:25:41;;;;;;;11.10;5.80;;;;;;;;;;4404271;32;20685;-57
2022/05/05 06:28:06;;;;;;;12.63;5.20;;;;;;;;;;4403859;32;20296;-57
2022/05/05 06:30:31;;;;;;;8.00;5.50;;;;;;;;;;4404212;32;20614;-56
2022/05/05 06:32:57;;;;;;;12.33;4.93;;;;;;;;;;4403824;32;20580;-57
2022/05/05 06:35:22;;;;;;;10.27;5.10;;;;;;;;;;4395323;32;20325;-57
2022/05/05 06:37:50;;;;;;;6.23;4.83;;;;;;;;;;4403853;32;20284;-58
2022/05/05 06:40:16;;;;;;;12.67;5.50;;;;;;;;;;4404134;32;20268;-56
2022/05/05 06:42:41;;;;;;;12.17;5.97;;;;;;;;;;4403606;32;20226;-57
2022/05/05 06:45:08;;;;;;;7.97;4.53;;;;;;;;;;4403922;32;20287;-58
2022/05/05 06:47:33;;;;;;;9.87;4.63;;;;;;;;;;4403526;32;20226;-57
2022/05/05 06:49:59;;;;;;;6.40;4.90;;;;;;;;;;4403842;32;20257;-57
2022/05/05 06:52:24;;;;;;;7.03;4.93;;;;;;;;;;4403192;32;20343;-57
2022/05/05 06:54:50;;;;;;;7.03;4.07;;;;;;;;;;4403124;32;20340;-57
2022/05/05 06:57:15;;;;;;;4.90;3.70;;;;;;;;;;4403415;32;20364;-57
2022/05/05 06:59:41;;;;;;;4.93;3.53;;;;;;;;;;4389801;32;20697;-57
2022/05/05 07:02:06;;;;;;;5.70;3.40;;;;;;;;;;4400748;32;20345;-56
2022/05/05 07:07:17;;;;;;;15.80;4.67;;;;;;;;;;4402720;32;20287;-56
2022/05/05 07:12:28;;;;;;;8.00;3.73;;;;;;;;;;4402881;32;20259;-57
2022/05/05 07:14:54;;;;;;;7.70;4.13;;;;;;;;;;4403379;32;20657;-57
2022/05/05 07:17:21;;;;;;;4.50;3.63;;;;;;;;;;4403015;32;20248;-58
2022/05/05 07:19:47;;;;;;;6.83;3.20;;;;;;;;;;4389306;32;20312;-59
2022/05/05 07:22:12;;;;;;;5.43;3.93;;;;;;;;;;4388556;32;20327;-59
2022/05/05 07:24:38;;;;;;;4.70;4.20;;;;;;;;;;4402905;32;20593;-59
2022/05/05 07:27:05;;;;;;;11.93;4.10;;;;;;;;;;4402595;32;20194;-58
2022/05/05 07:29:31;;;;;;;8.73;3.80;;;;;;;;;;4402737;32;20236;-58
2022/05/05 07:31:57;;;;;;;7.67;4.23;;;;;;;;;;4392784;32;20293;-58
2022/05/05 07:34:23;;;;;;;5.07;3.80;;;;;;;;;;4402527;32;20683;-60
2022/05/05 07:36:49;;;;;;;8.07;3.77;;;;;;;;;;4402143;32;20638;-58
2022/05/05 07:39:15;;;;;;;9.50;3.80;;;;;;;;;;4402554;32;20264;-57
2022/05/05 07:41:41;;;;;;;4.20;3.17;;;;;;;;;;4402325;32;20232;-57
2022/05/05 07:44:07;;;;;;;5.40;4.00;;;;;;;;;;4402355;32;20394;-56
2022/05/05 07:46:33;;;;;;;7.43;3.90;;;;;;;;;;4401660;32;20341;-58
2022/05/05 07:48:59;;;;;;;9.77;3.20;;;;;;;;;;4402375;32;20268;-56
2022/05/05 07:51:25;;;;;;;5.53;3.40;;;;;;;;;;4401829;32;20287;-56
2022/05/05 07:56:35;;;;;;;4.90;3.80;;;;;;;;;;4402155;32;20286;-57
2022/05/05 07:59:00;;;;;;;9.97;2.97;;;;;;;;;;4392724;32;20662;-58
2022/05/05 08:01:26;;;;;;;3.70;2.80;;;;;;;;;;4395743;32;20277;-57
2022/05/05 08:03:52;;;;;;;6.20;3.60;;;;;;;;;;4401777;32;20390;-58
2022/05/05 08:06:18;;;;;;;5.47;2.90;;;;;;;;;;4387547;32;20311;-57
2022/05/05 08:08:43;;;;;;;5.43;3.00;;;;;;;;;;4402133;32;20803;-56
2022/05/05 08:11:09;;;;;;;6.00;4.33;;;;;;;;;;4388514;32;20295;-57
2022/05/05 08:13:34;;;;;;;6.10;3.23;;;;;;;;;;4386628;32;20344;-58
2022/05/05 08:16:00;;;;;;;5.83;3.27;;;;;;;;;;4386623;32;20340;-59
2022/05/05 08:18:26;;;;;;;4.27;3.43;;;;;;;;;;4386629;32;20692;-57
2022/05/05 08:20:51;;;;;;;7.43;3.47;;;;;;;;;;4386964;32;20343;-57
2022/05/05 08:23:17;;;;;;;9.32;3.67;;;;;;;;;;4386817;32;20398;-57
2022/05/05 08:28:29;;;;;;;6.15;2.95;;;;;;;;;;4403651;32;20649;-57
2022/05/05 08:30:58;;;;;;;10.65;3.40;;;;;;;;;;4405030;32;20269;-57
2022/05/05 08:33:27;;;;;;;3.30;2.90;;;;;;;;;;4405515;32;20624;-60
2022/05/05 08:35:53;;;;;;;6.87;3.60;;;;;;;;;;4404790;32;20248;-57
2022/05/05 08:38:19;;;;;;;5.12;3.15;;;;;;;;;;4405049;32;20302;-57
2022/05/05 08:40:44;;;;;;;6.62;3.28;;;;;;;;;;4391495;32;20371;-59
2022/05/05 08:43:10;;;;;;;6.18;3.25;;;;;;;;;;4404988;32;20286;-59
2022/05/05 08:45:38;;;;;;;5.05;3.37;;;;;;;;;;4404759;32;20708;-59
2022/05/05 08:48:11;;;;;;;4.80;2.78;;;;;;;;;;4390695;32;20249;-58
2022/05/05 08:50:44;;;;;;;2.70;2.42;;;;;;;;;;4404462;32;20432;-59
2022/05/05 08:53:15;;;;;;;7.28;3.12;;;;;;;;;;4404372;32;20531;-59
2022/05/05 08:55:44;;;;;;;4.40;3.17;;;;;;;;;;4404872;32;20280;-59
2022/05/05 08:58:09;;;;;;;3.75;2.80;;;;;;;;;;4401887;32;20325;-59
2022/05/05 09:00:36;;;;;;;4.90;2.92;;;;;;;;;;4404571;32;20288;-59
2022/05/05 09:03:04;;;;;;;5.07;3.35;;;;;;;;;;4404049;32;20565;-58
2022/05/05 09:05:44;;;;;;;3.15;2.85;;;;;;;;;;4400706;32;20627;-57
2022/05/05 09:08:11;;;;;;;9.27;3.35;;;;;;;;;;4389233;32;20233;-57
2022/05/05 09:10:44;;;;;;;5.32;3.42;;;;;;;;;;4399690;32;20284;-58
2022/05/05 09:13:10;;;;;;;6.37;3.87;;;;;;;;;;4404605;32;20278;-58
2022/05/05 09:15:36;;;;;;;5.37;3.10;;;;;;;;;;4404552;32;20276;-58
2022/05/05 09:18:13;;;;;;;4.72;3.10;;;;;;;;;;4404095;32;20558;-57
2022/05/05 09:20:39;;;;;;;3.97;2.50;;;;;;;;;;4404550;32;20283;-57
2022/05/05 09:23:05;;;;;;;5.82;2.65;;;;;;;;;;4404329;32;20244;-57
2022/05/05 09:25:47;;;;;;;2.83;2.53;;;;;;;;;;4390568;32;20387;-57
2022/05/05 09:28:21;;;;;;;4.82;2.78;;;;;;;;;;4404023;32;20217;-57
2022/05/05 09:30:48;;;;;;;3.72;3.05;;;;;;;;;;4404404;32;20216;-57
2022/05/05 09:33:36;;;;;;;2.62;2.00;;;;;;;;;;4404200;32;20244;-57
2022/05/05 09:36:07;;;;;;;6.40;2.85;;;;;;;;;;4404516;32;20248;-58
2022/05/05 09:38:54;;;;;;;3.05;2.60;;;;;;;;;;4402416;32;20225;-58
2022/05/05 09:41:24;;;;;;;8.35;2.85;;;;;;;;;;4413541;32;20300;-58
2022/05/05 09:43:50;;;;;;;3.12;2.35;;;;;;;;;;4404160;32;20614;-58
2022/05/05 09:46:25;;;;;;;2.80;2.50;;;;;;;;;;4402393;32;20321;-58
2022/05/05 09:49:14;;;;;;;5.65;3.08;;;;;;;;;;4402487;32;20233;-57
2022/05/05 09:57:39;;;;;;;3.42;2.22;;;;;;;;;;4403807;32;20228;-57
2022/05/05 09:57:41;;;;;;;3.45;2.28;;;;;;;;;;4403672;32;20312;-57
2022/05/05 10:00:23;;;;;;;4.47;2.65;;;;;;;;;;4389756;32;20229;-57
2022/05/05 10:05:41;;;;;;;3.22;2.05;;;;;;;;;;4403058;32;20259;-57
2022/05/05 10:08:08;;;;;;;5.65;2.37;;;;;;;;;;4390071;32;20230;-57
2022/05/05 10:10:34;;;;;;;3.08;2.22;;;;;;;;;;4403250;32;20763;-57
2022/05/05 10:13:00;;;;;;;4.80;2.30;;;;;;;;;;4403224;32;20287;-58
2022/05/05 10:15:26;;;;;;;8.82;2.22;;;;;;;;;;4403905;32;20276;-57
2022/05/05 10:17:52;;;;;;;8.35;2.20;;;;;;;;;;4403607;32;20296;-59
2022/05/05 10:20:19;;;;;;;4.65;2.20;;;;;;;;;;4403601;32;20734;-57
2022/05/05 10:23:41;;;;;;;13.13;3.00;;;;;;;;;;4403588;32;20217;-56
2022/05/05 10:26:10;;;;;;;7.30;2.42;;;;;;;;;;4341513;33;20866;-57
2022/05/05 10:28:44;;;;;;;4.78;1.80;;;;;;;;;;4340362;33;20687;-57
2022/05/05 10:31:37;;;;;;;3.55;2.00;;;;;;;;;;4374098;32;20233;-56
2022/05/05 10:34:16;;;;;;;5.80;1.90;;;;;;;;;;4402814;32;20316;-56
2022/05/05 10:36:58;;;;;;;2.55;1.90;;;;;;;;;;4402672;32;20271;-56
2022/05/05 10:39:25;;;;;;;4.32;2.53;;;;;;;;;;4403427;32;20303;-57
2022/05/05 10:41:51;;;;;;;2.92;2.00;;;;;;;;;;4402322;32;20261;-56
2022/05/05 10:44:16;;;;;;;2.22;2.00;;;;;;;;;;4403030;32;20762;-56
2022/05/05 10:47:02;;;;;;;13.32;2.17;;;;;;;;;;4402766;32;20672;-56
2022/05/05 10:49:30;;;;;;;2.20;1.62;;;;;;;;;;4389091;32;20304;-57
2022/05/05 10:52:22;;;;;;;3.62;2.28;;;;;;;;;;4402927;32;20293;-56
2022/05/05 10:54:48;;;;;;;5.57;1.87;;;;;;;;;;4398892;32;20315;-57
2022/05/05 10:57:41;;;;;;;6.78;1.95;;;;;;;;;;4403287;32;20672;-55
2022/05/05 11:00:13;;;;;;;2.67;2.03;;;;;;;;;;4380598;32;20217;-56
2022/05/05 11:03:02;;;;;;;2.65;2.00;;;;;;;;;;4402306;32;20278;-56
2022/05/05 11:05:30;;;;;;;4.28;1.87;;;;;;;;;;4391641;32;20668;-55
2022/05/05 11:08:17;;;;;;;1.95;1.65;;;;;;;;;;4403102;32;20217;-57
2022/05/05 11:10:47;;;;;;;2.85;2.22;;;;;;;;;;4402856;32;20220;-57
2022/05/05 11:13:41;;;;;;;5.93;1.65;;;;;;;;;;4402778;32;20634;-56
2022/05/05 11:22:14;;;;;;;2.95;1.95;;;;;;;;;;4402671;32;20754;-56
2022/05/05 11:24:44;;;;;;;5.55;1.70;;;;;;;;;;4402790;32;20299;-56
2022/05/05 11:27:24;;;;;;;5.15;2.20;;;;;;;;;;4389384;32;20217;-56
2022/05/05 11:29:51;;;;;;;1.83;1.50;;;;;;;;;;4403346;32;20666;-56
2022/05/05 11:32:18;;;;;;;3.70;2.33;;;;;;;;;;4407706;32;20218;-56
2022/05/05 11:34:45;;;;;;;3.35;1.65;;;;;;;;;;4416758;32;20244;-55
2022/05/05 11:37:12;;;;;;;3.72;2.53;;;;;;;;;;4417115;32;20525;-56
2022/05/05 11:39:38;;;;;;;3.17;2.37;;;;;;;;;;4402878;32;20279;-55
2022/05/05 11:42:09;;;;;;;2.47;1.77;;;;;;;;;;4402526;32;20267;-55
2022/05/05 11:44:39;;;;;;;4.15;2.40;;;;;;;;;;4402541;32;20282;-55
2022/05/05 11:47:13;;;;;;;2.67;2.17;;;;;;;;;;4402522;32;20251;-56
2022/05/05 11:49:43;;;;;;;7.03;2.72;;;;;;;;;;4402972;32;20264;-57
2022/05/05 11:52:10;;;;;;;3.83;1.67;;;;;;;;;;4389122;32;20226;-55
2022/05/05 11:54:36;;;;;;;4.97;2.10;;;;;;;;;;4398947;32;20276;-57
2022/05/05 11:57:01;;;;;;;6.40;2.53;;;;;;;;;;4373806;32;20253;-55
2022/05/05 12:02:21;;;;;;;2.92;2.03;;;;;;;;;;4401394;32;20244;-56
2022/05/05 12:04:51;;;;;;;13.10;2.60;;;;;;;;;;4403136;32;20206;-56
2022/05/05 12:07:22;;;;;;;4.53;2.03;;;;;;;;;;4388128;32;20244;-56
2022/05/05 12:09:52;;;;;;;3.30;1.73;;;;;;;;;;4393177;32;20202;-55
2022/05/05 12:12:22;;;;;;;3.92;1.80;;;;;;;;;;4402373;32;20248;-55
2022/05/05 12:14:52;;;;;;;5.55;1.90;;;;;;;;;;4402634;32;20688;-56
2022/05/05 12:17:49;;;;;;;3.97;3.17;;;;;;;;;;4402734;32;20315;-55
2022/05/05 12:20:17;;;;;;;6.07;2.40;;;;;;;;;;4401627;32;20240;-56
2022/05/05 12:22:44;;;;;;;4.80;2.37;;;;;;;;;;4402311;32;20209;-56
2022/05/05 12:25:17;;;;;;;3.85;2.10;;;;;;;;;;4388528;32;20287;-56
2022/05/05 12:27:44;;;;;;;3.53;2.70;;;;;;;;;;4388392;32;20214;-56
2022/05/05 12:30:10;;;;;;;6.35;3.05;;;;;;;;;;4402445;32;20264;-57
2022/05/05 12:32:49;;;;;;;8.10;2.45;;;;;;;;;;4402142;32;20399;-56
2022/05/05 12:35:17;;;;;;;4.15;2.22;;;;;;;;;;4402262;32;20359;-55
2022/05/05 12:37:43;;;;;;;4.45;2.45;;;;;;;;;;4398569;32;20423;-54
2022/05/05 12:40:09;;;;;;;4.55;2.60;;;;;;;;;;4387234;32;20230;-57
2022/05/05 12:42:43;;;;;;;3.80;2.35;;;;;;;;;;4387083;32;20250;-55
2022/05/05 12:45:13;;;;;;;3.05;2.45;;;;;;;;;;4401185;32;20205;-56
2022/05/05 12:47:43;;;;;;;3.10;2.15;;;;;;;;;;4402282;32;20218;-56
2022/05/05 12:50:41;;;;;;;6.30;1.87;;;;;;;;;;4402339;32;20319;-55
2022/05/05 13:01:31;;;;;;;8.25;2.08;;;;;;;;;;4401865;32;20243;-57
2022/05/05 13:04:01;;;;;;;2.30;1.83;;;;;;;;;;4401962;32;20304;-57
2022/05/05 13:06:27;;;;;;;3.25;2.17;;;;;;;;;;4401825;32;20253;-56
2022/05/05 13:08:53;;;;;;;4.30;2.83;;;;;;;;;;4402163;32;20214;-56
2022/05/05 13:11:20;;;;;;;8.05;3.55;;;;;;;;;;4417241;32;20297;-57
2022/05/05 13:13:46;;;;;;;4.30;3.05;;;;;;;;;;4419925;32;20243;-56
2022/05/05 13:16:13;;;;;;;5.97;2.58;;;;;;;;;;4420028;32;20209;-56
2022/05/05 13:18:38;;;;;;;8.02;3.53;;;;;;;;;;4419883;32;20578;-56
2022/05/05 13:21:04;;;;;;;7.18;2.80;;;;;;;;;;4419778;32;20283;-58
2022/05/05 13:23:29;;;;;;;6.68;2.20;;;;;;;;;;4419397;32;20255;-56
2022/05/05 13:25:55;;;;;;;3.22;2.20;;;;;;;;;;4407108;32;20747;-57
2022/05/05 13:28:21;;;;;;;4.72;2.45;;;;;;;;;;4404537;32;20222;-58
2022/05/05 13:30:46;;;;;;;9.57;3.87;;;;;;;;;;4404705;32;20339;-57
2022/05/05 13:33:12;;;;;;;6.55;3.40;;;;;;;;;;4404328;32;20356;-58
2022/05/05 13:35:38;;;;;;;10.40;4.53;;;;;;;;;;4404683;32;20378;-58
2022/05/05 13:38:03;;;;;;;4.20;2.50;;;;;;;;;;4403968;32;20298;-58
2022/05/05 13:40:29;;;;;;;4.95;2.87;;;;;;;;;;4404080;32;20276;-57
2022/05/05 13:42:55;;;;;;;5.40;2.40;;;;;;;;;;4404271;32;20214;-56
2022/05/05 13:45:21;;;;;;;2.87;2.25;;;;;;;;;;4390212;32;20656;-58
2022/05/05 13:47:47;;;;;;;1.77;1.65;;;;;;;;;;4396031;32;20331;-57
2022/05/05 13:50:13;;;;;;;2.97;2.20;;;;;;;;;;4388718;32;20289;-58
2022/05/05 13:52:40;;;;;;;3.40;2.33;;;;;;;;;;4388871;32;20292;-57
2022/05/05 13:55:07;;;;;;;4.50;2.42;;;;;;;;;;4401517;32;20288;-57
2022/05/05 13:57:32;;;;;;;4.55;2.00;;;;;;;;;;4403771;32;20221;-58
2022/05/05 13:59:58;;;;;;;3.80;2.25;;;;;;;;;;4375091;32;20733;-58
2022/05/05 14:02:23;;;;;;;3.35;2.28;;;;;;;;;;4389592;32;20296;-57
2022/05/05 14:04:49;;;;;;;2.80;2.03;;;;;;;;;;4404455;32;20306;-57
2022/05/05 14:07:15;;;;;;;3.70;1.95;;;;;;;;;;4416721;32;20243;-57
2022/05/05 14:12:25;;;;;;;2.85;1.98;;;;;;;;;;4418924;32;20293;-57
2022/05/05 14:14:50;;;;;;;4.80;2.50;;;;;;;;;;4419196;32;20268;-57
2022/05/05 14:17:17;;;;;;;3.47;2.28;;;;;;;;;;4419323;32;20539;-56
2022/05/05 14:19:44;;;;;;;7.47;2.35;;;;;;;;;;4405168;32;20566;-57
2022/05/05 14:22:10;;;;;;;4.57;2.20;;;;;;;;;;4418568;32;20201;-57
2022/05/05 14:24:35;;;;;;;2.92;2.20;;;;;;;;;;4414759;32;20296;-57
2022/05/05 14:27:02;;;;;;;3.22;2.50;;;;;;;;;;4389453;32;20245;-57
2022/05/05 14:29:28;;;;;;;6.12;2.22;;;;;;;;;;4403666;32;20205;-57
2022/05/05 14:31:53;;;;;;;4.47;2.25;;;;;;;;;;4389603;32;20194;-56
2022/05/05 14:34:20;;;;;;;5.35;2.92;;;;;;;;;;4402802;32;20277;-57
2022/05/05 14:36:45;;;;;;;5.47;2.80;;;;;;;;;;4403147;32;20221;-57
2022/05/05 14:39:11;;;;;;;6.62;3.30;;;;;;;;;;4403613;32;20267;-56
2022/05/05 14:41:36;;;;;;;10.48;3.58;;;;;;;;;;4403325;32;20216;-57
2022/05/05 14:44:03;;;;;;;6.97;2.47;;;;;;;;;;4403494;32;20225;-57
2022/05/05 14:46:29;;;;;;;5.35;2.80;;;;;;;;;;4376701;32;20210;-57
2022/05/05 14:48:54;;;;;;;3.60;2.05;;;;;;;;;;4388215;32;20271;-57
2022/05/05 14:51:20;;;;;;;3.55;2.20;;;;;;;;;;4388208;32;20280;-57
2022/05/05 14:53:45;;;;;;;2.72;2.30;;;;;;;;;;4393609;32;20599;-57
2022/05/05 14:56:11;;;;;;;5.45;2.45;;;;;;;;;;4389368;32;20745;-57
2022/05/05 14:58:37;;;;;;;5.47;2.87;;;;;;;;;;4403224;32;20312;-56
2022/05/05 15:01:04;;;;;;;3.75;2.53;;;;;;;;;;4389262;32;20858;-57
2022/05/05 15:03:30;;;;;;;4.05;2.90;;;;;;;;;;4402534;32;20267;-57
2022/05/05 15:05:56;;;;;;;3.80;2.37;;;;;;;;;;4396906;32;20277;-58
2022/05/05 15:08:22;;;;;;;3.80;2.25;;;;;;;;;;4374306;32;20285;-58
2022/05/05 15:10:47;;;;;;;2.72;2.03;;;;;;;;;;4388174;32;20576;-58
2022/05/05 15:13:13;;;;;;;4.80;2.33;;;;;;;;;;4387907;32;20236;-58
2022/05/05 15:15:38;;;;;;;4.03;2.50;;;;;;;;;;4373874;32;20292;-59
2022/05/05 15:18:05;;;;;;;2.33;1.83;;;;;;;;;;4387913;32;20244;-58
2022/05/05 15:20:34;;;;;;;2.15;1.37;;;;;;;;;;4373878;32;20238;-58
2022/05/05 15:23:00;;;;;;;3.50;2.28;;;;;;;;;;4387778;32;20626;-56
2022/05/05 15:25:26;;;;;;;2.83;2.08;;;;;;;;;;4397109;32;20277;-57
2022/05/05 15:27:52;;;;;;;3.15;2.15;;;;;;;;;;4402799;32;20591;-57
2022/05/05 15:30:17;;;;;;;2.47;1.77;;;;;;;;;;4402793;32;20277;-58
2022/05/05 15:32:43;;;;;;;3.25;2.12;;;;;;;;;;4402526;32;20256;-56